Grove Hall, Massachusetts
Current Conditions -  °F | °C
As of 7:54 AM on Sunday 21 Dec 2014 (Local Time) from KBOS Reporting Station
Overcast Overcast  
Wind Chill: 21°   Ceiling: 1800
Heat Index: 30°   Visibility: 10mi
Dew Point: 26°   Wind: 10mph
Humidity: 85%   Direction: 360°N
Pressure: 30.32"   Gusts: NA
Location:  42.3078°N, 71.0835°W
Report Text: KBOS 211254Z 36009KT 10SM FEW010 OVC018 M01/M03 A3032 RMK AO2 SNE46 SLP267 P0000 T10111033
Loading
Personal Weather Stations






























Interactive Weather Map New forecast layout! Learn more

10-Day Weather Forecast

Advertisements
Track Severe Weather on mobile